createdAt,value
2023-01-17T00:02:20.683Z,3.87
2023-01-17T00:05:06.066Z,3.90
2023-01-17T00:07:51.870Z,3.84
2023-01-17T00:10:23.098Z,3.70
2023-01-17T00:12:53.007Z,3.68
2023-01-17T00:15:23.293Z,3.65
2023-01-17T00:17:51.737Z,3.53
2023-01-17T00:20:40.002Z,3.48
2023-01-17T00:23:26.794Z,3.43
2023-01-17T00:26:05.188Z,3.39
2023-01-17T00:28:34.207Z,3.34
2023-01-17T00:31:00.970Z,3.37
2023-01-17T00:33:28.024Z,3.28
2023-01-17T00:35:56.054Z,3.21
2023-01-17T00:38:24.628Z,3.17
2023-01-17T00:40:51.495Z,3.13
2023-01-17T00:43:41.267Z,3.10
2023-01-17T00:46:26.957Z,3.05
2023-01-17T00:49:12.668Z,3.05
2023-01-17T00:51:57.972Z,3.01
2023-01-17T00:54:43.497Z,3.01
2023-01-17T00:57:28.874Z,3.02
2023-01-17T01:00:15.347Z,3.06
2023-01-17T01:03:00.777Z,3.00
2023-01-17T01:05:46.510Z,2.94
2023-01-17T01:08:36.764Z,2.92
2023-01-17T01:11:24.662Z,2.90
2023-01-17T01:14:10.132Z,2.85
2023-01-17T01:16:56.745Z,2.82
2023-01-17T01:19:42.640Z,2.79
2023-01-17T01:22:28.571Z,2.71
2023-01-17T01:25:13.729Z,2.83
2023-01-17T01:27:58.787Z,2.78
2023-01-17T01:30:44.097Z,2.69
2023-01-17T01:33:21.013Z,2.65
2023-01-17T01:35:50.765Z,2.66
2023-01-17T01:38:19.257Z,2.69
2023-01-17T01:40:48.940Z,2.64
2023-01-17T01:43:19.688Z,2.59
2023-01-17T01:45:52.204Z,2.64
2023-01-17T01:48:39.257Z,2.57
2023-01-17T01:51:10.225Z,2.55
2023-01-17T01:53:42.025Z,2.54
2023-01-17T01:56:13.701Z,2.49
2023-01-17T01:58:44.876Z,2.51
2023-01-17T02:01:13.138Z,2.51
2023-01-17T02:03:43.612Z,2.56
2023-01-17T02:06:25.818Z,2.50
2023-01-17T02:08:53.798Z,2.49
2023-01-17T02:11:23.181Z,2.61
2023-01-17T02:13:51.267Z,2.57
2023-01-17T02:16:32.390Z,2.54
2023-01-17T02:19:21.703Z,2.52
2023-01-17T02:22:07.207Z,2.53
2023-01-17T02:24:56.812Z,2.53
2023-01-17T02:27:28.471Z,2.58
2023-01-17T02:30:33.248Z,2.60
2023-01-17T02:33:14.376Z,2.66
2023-01-17T02:35:53.790Z,2.71
2023-01-17T02:38:38.082Z,2.87
2023-01-17T02:41:08.586Z,2.88
2023-01-17T02:43:38.325Z,2.90
2023-01-17T02:46:09.648Z,2.92
2023-01-17T02:48:38.487Z,2.93
2023-01-17T02:51:29.861Z,2.96
2023-01-17T02:54:20.810Z,2.96
2023-01-17T02:57:00.458Z,3.01
2023-01-17T02:59:41.721Z,3.00
2023-01-17T03:02:20.967Z,2.98
2023-01-17T03:04:53.486Z,2.91
2023-01-17T03:07:25.418Z,2.89
2023-01-17T03:09:59.508Z,2.89
2023-01-17T03:12:29.892Z,2.89
2023-01-17T03:14:58.189Z,2.89
2023-01-17T03:17:33.549Z,2.92
2023-01-17T03:20:01.249Z,2.92
2023-01-17T03:22:29.025Z,2.90
2023-01-17T03:24:57.056Z,2.92
2023-01-17T03:27:24.995Z,2.88
2023-01-17T03:29:52.979Z,2.72
2023-01-17T03:32:20.682Z,2.58
2023-01-17T03:34:49.848Z,2.47
2023-01-17T03:37:17.607Z,2.43
2023-01-17T03:39:45.759Z,2.34
2023-01-17T03:42:13.511Z,2.32
2023-01-17T03:44:41.447Z,2.31
2023-01-17T03:47:12.033Z,2.33
2023-01-17T03:49:40.790Z,2.41
2023-01-17T03:52:10.111Z,2.42
2023-01-17T03:54:37.900Z,2.45
2023-01-17T03:57:06.209Z,2.45
2023-01-17T03:59:34.233Z,2.44
2023-01-17T04:02:02.360Z,2.49
2023-01-17T04:04:30.407Z,2.51
2023-01-17T04:06:58.124Z,2.53
2023-01-17T04:09:27.558Z,2.50
2023-01-17T04:11:55.449Z,2.49
2023-01-17T04:14:23.316Z,2.54
2023-01-17T04:16:51.327Z,2.56
2023-01-17T04:19:19.450Z,2.62
2023-01-17T04:21:47.761Z,2.64
2023-01-17T04:24:17.816Z,2.66
2023-01-17T04:26:47.637Z,2.65
2023-01-17T04:29:15.539Z,2.65
2023-01-17T04:31:43.775Z,2.65
2023-01-17T04:34:12.001Z,2.65
2023-01-17T04:36:39.968Z,2.63
2023-01-17T04:39:08.293Z,2.62
2023-01-17T04:41:37.231Z,2.58
2023-01-17T04:44:07.035Z,2.58
2023-01-17T04:46:35.211Z,2.54
2023-01-17T04:49:03.433Z,2.53
2023-01-17T04:51:31.362Z,2.51
2023-01-17T04:53:59.321Z,2.49
2023-01-17T04:56:27.212Z,2.45
2023-01-17T04:58:57.528Z,2.44
2023-01-17T05:01:27.091Z,2.44
2023-01-17T05:03:55.072Z,2.43
2023-01-17T05:06:22.817Z,2.46
2023-01-17T05:08:50.830Z,2.47
2023-01-17T05:11:18.927Z,2.48
2023-01-17T05:13:49.261Z,2.51
2023-01-17T05:16:19.421Z,2.48
2023-01-17T05:18:52.435Z,2.49
2023-01-17T05:21:20.321Z,2.50
2023-01-17T05:23:48.212Z,2.48
2023-01-17T05:26:15.999Z,2.45
2023-01-17T05:28:44.024Z,2.45
2023-01-17T05:31:11.990Z,2.45
2023-01-17T05:33:40.067Z,2.42
2023-01-17T05:36:10.374Z,2.40
2023-01-17T05:38:38.583Z,2.39
2023-01-17T05:41:07.092Z,2.39
2023-01-17T05:43:35.156Z,2.39
2023-01-17T05:46:03.185Z,2.38
2023-01-17T05:48:31.558Z,2.38
2023-01-17T05:50:59.847Z,2.39
2023-01-17T05:53:29.317Z,2.42
2023-01-17T05:55:57.726Z,2.44
2023-01-17T05:58:25.893Z,2.48
2023-01-17T06:00:56.233Z,2.49
2023-01-17T06:03:24.359Z,2.53
2023-01-17T06:05:52.262Z,2.55
2023-01-17T06:08:20.462Z,2.56
2023-01-17T06:10:50.070Z,2.57
2023-01-17T06:13:21.861Z,2.58
2023-01-17T06:15:50.321Z,2.59
2023-01-17T06:18:19.772Z,2.61
2023-01-17T06:20:53.162Z,2.62
2023-01-17T06:23:21.231Z,2.61
2023-01-17T06:25:51.426Z,2.62
2023-01-17T06:28:21.849Z,2.61
2023-01-17T06:30:51.565Z,2.61
2023-01-17T06:33:20.578Z,2.61
2023-01-17T06:35:50.621Z,2.61
2023-01-17T06:38:19.059Z,2.59
2023-01-17T06:40:47.885Z,2.60
2023-01-17T06:43:18.131Z,2.62
2023-01-17T06:45:46.205Z,2.64
2023-01-17T06:48:15.520Z,2.63
2023-01-17T06:50:43.872Z,2.64
2023-01-17T06:53:12.123Z,2.65
2023-01-17T06:55:40.597Z,2.64
2023-01-17T06:58:10.255Z,2.65
2023-01-17T07:00:41.079Z,2.64
2023-01-17T07:03:18.620Z,2.63
2023-01-17T07:05:46.780Z,2.60
2023-01-17T07:08:16.846Z,2.58
2023-01-17T07:10:45.919Z,2.59
2023-01-17T07:13:14.702Z,2.60
2023-01-17T07:15:43.929Z,2.61
2023-01-17T07:18:12.992Z,2.62
2023-01-17T07:20:43.869Z,2.65
2023-01-17T07:23:12.503Z,2.69
2023-01-17T07:25:41.204Z,2.69
2023-01-17T07:28:10.055Z,2.72
2023-01-17T07:30:38.191Z,2.71
2023-01-17T07:33:07.496Z,2.70
2023-01-17T07:35:35.617Z,2.71
2023-01-17T07:38:05.747Z,2.68
2023-01-17T07:40:41.545Z,2.67
2023-01-17T07:43:14.420Z,2.66
2023-01-17T07:45:44.523Z,2.58
2023-01-17T07:48:15.629Z,2.50
2023-01-17T07:50:43.901Z,2.43
2023-01-17T07:53:12.723Z,2.46
2023-01-17T07:55:41.274Z,2.48
2023-01-17T07:58:11.371Z,2.47
2023-01-17T08:00:39.465Z,2.48
2023-01-17T08:03:07.406Z,2.50
2023-01-17T08:05:36.818Z,2.51
2023-01-17T08:08:05.492Z,2.47
2023-01-17T08:10:34.501Z,2.39
2023-01-17T08:13:02.474Z,2.33
2023-01-17T08:15:30.467Z,2.32
2023-01-17T08:17:58.671Z,2.25
2023-01-17T08:20:28.137Z,2.23
2023-01-17T08:22:58.135Z,2.22
2023-01-17T08:25:27.093Z,2.21
2023-01-17T08:27:58.678Z,2.19
2023-01-17T08:30:27.518Z,2.18
2023-01-17T08:32:55.647Z,2.16
2023-01-17T08:35:24.397Z,2.14
2023-01-17T08:37:55.922Z,2.11
2023-01-17T08:40:25.919Z,2.13
2023-01-17T08:42:57.712Z,2.21
2023-01-17T08:45:26.032Z,2.26
2023-01-17T08:47:54.693Z,2.27
2023-01-17T08:50:23.067Z,2.31
2023-01-17T08:52:53.343Z,2.35
2023-01-17T08:55:22.038Z,2.34
2023-01-17T08:57:51.557Z,2.39
2023-01-17T09:00:20.629Z,2.45
2023-01-17T09:02:48.751Z,2.50
2023-01-17T09:05:16.665Z,2.52
2023-01-17T09:07:44.820Z,2.55
2023-01-17T09:10:13.909Z,2.58
2023-01-17T09:12:41.936Z,2.63
2023-01-17T09:15:14.811Z,2.64
2023-01-17T09:17:42.530Z,2.65
2023-01-17T09:20:12.083Z,2.68
2023-01-17T09:22:39.924Z,2.73
2023-01-17T09:25:08.795Z,2.81
2023-01-17T09:27:36.624Z,2.84
2023-01-17T09:30:05.601Z,2.88
2023-01-17T09:32:35.258Z,2.92
2023-01-17T09:35:05.521Z,2.95
2023-01-17T09:37:33.596Z,2.99
2023-01-17T09:40:01.349Z,3.06
2023-01-17T09:42:35.799Z,3.07
2023-01-17T09:45:04.410Z,3.16
2023-01-17T09:47:41.655Z,3.19
2023-01-17T09:50:21.896Z,3.21
2023-01-17T09:52:49.829Z,3.26
2023-01-17T09:55:18.866Z,3.31
2023-01-17T09:57:57.579Z,3.41
2023-01-17T10:00:40.635Z,3.51
2023-01-17T10:03:30.985Z,3.55
2023-01-17T10:06:17.513Z,3.54
2023-01-17T10:09:04.801Z,3.63
2023-01-17T10:11:48.147Z,3.64
2023-01-17T10:14:33.553Z,3.73
2023-01-17T10:17:13.545Z,3.81
2023-01-17T10:20:01.568Z,3.81
2023-01-17T10:22:51.270Z,3.84
2023-01-17T10:25:48.064Z,3.85
2023-01-17T10:28:18.258Z,3.86
2023-01-17T10:30:51.117Z,3.84
2023-01-17T10:33:21.680Z,3.87
2023-01-17T10:35:57.144Z,3.95
2023-01-17T10:38:32.596Z,4.03
2023-01-17T10:41:06.399Z,4.10
2023-01-17T10:43:53.887Z,4.16
2023-01-17T10:46:28.594Z,4.24
2023-01-17T10:48:58.275Z,4.28
2023-01-17T10:51:43.998Z,4.22
2023-01-17T10:54:27.903Z,4.32
2023-01-17T10:56:56.022Z,4.42
2023-01-17T10:59:30.595Z,4.52
2023-01-17T11:01:58.481Z,4.54
2023-01-17T11:04:37.507Z,4.59
2023-01-17T11:07:14.431Z,4.63
2023-01-17T11:09:44.315Z,4.67
2023-01-17T11:12:21.990Z,4.61
2023-01-17T11:14:59.842Z,4.62
2023-01-17T11:17:28.941Z,4.63
2023-01-17T11:20:09.322Z,4.70
2023-01-17T11:22:39.095Z,4.68
2023-01-17T11:25:08.351Z,4.72
2023-01-17T11:27:39.666Z,4.75
2023-01-17T11:30:18.108Z,4.87
2023-01-17T11:32:53.970Z,4.78
2023-01-17T11:35:25.810Z,4.83
2023-01-17T11:38:04.662Z,4.78
2023-01-17T11:40:42.859Z,4.87
2023-01-17T11:43:21.090Z,4.91
2023-01-17T11:46:02.940Z,4.91
2023-01-17T11:48:37.520Z,4.93
2023-01-17T11:51:15.289Z,4.94
2023-01-17T11:53:48.390Z,4.95
2023-01-17T11:56:23.463Z,5.06
2023-01-17T11:58:52.471Z,5.12
2023-01-17T12:01:34.870Z,5.06
2023-01-17T12:04:23.042Z,5.17
2023-01-17T12:07:06.388Z,5.18
2023-01-17T12:09:43.898Z,5.17
2023-01-17T12:12:39.995Z,5.32
2023-01-17T12:15:22.361Z,5.32
2023-01-17T12:18:10.933Z,5.38
2023-01-17T12:20:49.495Z,5.43
2023-01-17T12:23:32.611Z,5.55
2023-01-17T12:26:09.828Z,5.61
2023-01-17T12:28:54.659Z,5.57
2023-01-17T12:31:33.666Z,5.47
2023-01-17T12:34:15.779Z,5.51
2023-01-17T12:36:49.623Z,5.47
2023-01-17T12:39:22.804Z,5.49
2023-01-17T12:41:58.203Z,5.41
2023-01-17T12:44:39.605Z,5.54
2023-01-17T12:47:08.208Z,5.39
2023-01-17T12:49:43.477Z,5.39
2023-01-17T12:52:19.525Z,5.51
2023-01-17T12:54:52.724Z,5.46
2023-01-17T12:57:26.864Z,5.41
2023-01-17T13:00:03.011Z,5.40
2023-01-17T13:02:39.067Z,5.43
2023-01-17T13:05:15.329Z,5.48
2023-01-17T13:07:50.386Z,5.39
2023-01-17T13:10:35.411Z,5.45
2023-01-17T13:13:20.429Z,5.44
2023-01-17T13:15:50.512Z,5.42
2023-01-17T13:18:23.340Z,5.52
2023-01-17T13:21:04.923Z,5.50
2023-01-17T13:23:45.818Z,5.33
2023-01-17T13:26:27.861Z,5.34
2023-01-17T13:29:06.241Z,5.19
2023-01-17T13:31:48.347Z,5.07
2023-01-17T13:34:35.183Z,5.11
2023-01-17T13:37:32.553Z,4.98
2023-01-17T13:40:30.100Z,4.94
2023-01-17T13:43:00.953Z,4.91
2023-01-17T13:45:32.732Z,4.88
2023-01-17T13:48:32.206Z,4.83
2023-01-17T13:51:03.753Z,4.82
2023-01-17T13:53:55.038Z,4.86
2023-01-17T13:56:37.101Z,4.75
2023-01-17T13:59:30.687Z,4.69
2023-01-17T14:02:00.352Z,4.68
2023-01-17T14:05:03.681Z,4.63
2023-01-17T14:07:35.035Z,4.57
2023-01-17T14:10:03.264Z,4.52
2023-01-17T14:12:40.049Z,4.48
2023-01-17T14:15:22.559Z,4.36
2023-01-17T14:17:58.857Z,4.39
2023-01-17T14:20:53.892Z,4.37
2023-01-17T14:23:56.374Z,4.40
2023-01-17T14:26:43.054Z,4.38
2023-01-17T14:29:59.353Z,4.38
2023-01-17T14:32:32.649Z,4.37
2023-01-17T14:35:03.016Z,4.34
2023-01-17T14:37:47.591Z,4.35
2023-01-17T14:40:25.997Z,4.37
2023-01-17T14:43:02.167Z,4.32
2023-01-17T14:45:33.132Z,4.31
2023-01-17T14:48:04.241Z,4.29
2023-01-17T14:50:37.692Z,4.25
2023-01-17T14:53:17.431Z,4.21
2023-01-17T14:55:55.510Z,4.21
2023-01-17T14:58:25.104Z,4.21
2023-01-17T15:00:56.415Z,4.26
2023-01-17T15:03:24.524Z,4.23
2023-01-17T15:05:55.964Z,4.19
2023-01-17T15:08:26.951Z,4.20
2023-01-17T15:11:00.209Z,4.19
2023-01-17T15:13:43.776Z,4.20
2023-01-17T15:16:21.091Z,4.16
2023-01-17T15:18:49.182Z,4.14
2023-01-17T15:21:20.762Z,4.11
2023-01-17T15:23:52.555Z,4.07
2023-01-17T15:26:23.303Z,4.07
2023-01-17T15:28:52.004Z,4.04
2023-01-17T15:31:26.645Z,4.03
2023-01-17T15:33:57.965Z,4.04
2023-01-17T15:36:33.143Z,4.04
2023-01-17T15:39:03.425Z,3.99
2023-01-17T15:41:34.878Z,3.97
2023-01-17T15:44:03.569Z,3.95
2023-01-17T15:46:39.333Z,3.90
2023-01-17T15:49:17.856Z,3.87
2023-01-17T15:51:56.572Z,3.79
2023-01-17T15:54:35.298Z,3.74
2023-01-17T15:57:18.145Z,3.66
2023-01-17T15:59:49.030Z,3.64
2023-01-17T16:02:43.189Z,3.62
2023-01-17T16:05:34.709Z,3.61
2023-01-17T16:08:30.230Z,3.57
2023-01-17T16:11:02.151Z,3.55
2023-01-17T16:13:31.804Z,3.55
2023-01-17T16:16:27.122Z,3.55
2023-01-17T16:19:01.531Z,3.47
2023-01-17T16:21:30.982Z,3.46
2023-01-17T16:24:00.943Z,3.47
2023-01-17T16:26:30.116Z,3.46
2023-01-17T16:28:58.133Z,3.43
2023-01-17T16:31:26.462Z,3.37
2023-01-17T16:33:54.697Z,3.32
2023-01-17T16:36:23.150Z,3.27
2023-01-17T16:38:52.389Z,3.21
2023-01-17T16:41:23.127Z,3.15
2023-01-17T16:44:00.015Z,3.18
2023-01-17T16:46:30.070Z,3.16
2023-01-17T16:49:00.747Z,3.13
2023-01-17T16:51:29.529Z,3.06
2023-01-17T16:53:58.250Z,3.05
2023-01-17T16:56:27.754Z,3.03
2023-01-17T16:58:56.926Z,3.04
2023-01-17T17:01:25.434Z,3.02
2023-01-17T17:03:53.802Z,3.01
2023-01-17T17:06:21.955Z,2.98
2023-01-17T17:08:51.035Z,2.93
2023-01-17T17:11:22.005Z,2.92
2023-01-17T17:13:52.325Z,2.87
2023-01-17T17:16:23.180Z,2.86
2023-01-17T17:18:57.351Z,2.87
2023-01-17T17:21:26.018Z,2.85
2023-01-17T17:23:57.438Z,2.87
2023-01-17T17:26:27.720Z,2.80
2023-01-17T17:28:58.664Z,2.78
2023-01-17T17:31:27.917Z,2.78
2023-01-17T17:33:59.829Z,2.75
2023-01-17T17:36:28.095Z,2.70
2023-01-17T17:38:59.046Z,2.68
2023-01-17T17:41:29.664Z,2.63
2023-01-17T17:44:01.209Z,2.59
2023-01-17T17:46:31.104Z,2.56
2023-01-17T17:49:01.011Z,2.57
2023-01-17T17:51:31.666Z,2.56
2023-01-17T17:54:02.696Z,2.54
2023-01-17T17:56:33.033Z,2.53
2023-01-17T17:59:03.887Z,2.49
2023-01-17T18:01:32.121Z,2.49
2023-01-17T18:04:03.561Z,2.46
2023-01-17T18:06:32.323Z,2.45
2023-01-17T18:09:00.347Z,2.43
2023-01-17T18:11:30.550Z,2.44
2023-01-17T18:14:03.652Z,2.41
2023-01-17T18:16:35.593Z,2.38
2023-01-17T18:19:05.174Z,2.35
2023-01-17T18:21:36.796Z,2.32
2023-01-17T18:24:10.934Z,2.31
2023-01-17T18:26:41.892Z,2.31
2023-01-17T18:29:15.092Z,2.33
2023-01-17T18:31:44.976Z,2.33
2023-01-17T18:34:15.383Z,2.33
2023-01-17T18:36:45.338Z,2.33
2023-01-17T18:39:15.232Z,2.36
2023-01-17T18:41:43.473Z,2.39
2023-01-17T18:44:13.730Z,2.39
2023-01-17T18:46:43.936Z,2.39
2023-01-17T18:49:16.390Z,2.43
2023-01-17T18:51:47.677Z,2.46
2023-01-17T18:54:16.331Z,2.47
2023-01-17T18:56:44.400Z,2.46
2023-01-17T18:59:18.154Z,2.48
2023-01-17T19:01:47.406Z,2.50
2023-01-17T19:04:17.953Z,2.51
2023-01-17T19:06:49.764Z,2.49
2023-01-17T19:09:19.249Z,2.48
2023-01-17T19:11:48.263Z,2.47
2023-01-17T19:14:18.574Z,2.49
2023-01-17T19:16:47.097Z,2.47
2023-01-17T19:19:17.063Z,2.46
2023-01-17T19:21:45.195Z,2.45
2023-01-17T19:24:15.189Z,2.46
2023-01-17T19:26:44.514Z,2.44
2023-01-17T19:29:13.468Z,2.43
2023-01-17T19:31:44.854Z,2.42
2023-01-17T19:34:16.116Z,2.41
2023-01-17T19:36:44.718Z,2.41
2023-01-17T19:39:13.257Z,2.38
2023-01-17T19:41:44.480Z,2.34
2023-01-17T19:44:14.933Z,2.32
2023-01-17T19:46:46.191Z,2.32
2023-01-17T19:49:16.718Z,2.29
2023-01-17T19:51:45.208Z,2.33
2023-01-17T19:54:15.418Z,2.33
2023-01-17T19:56:43.742Z,2.31
2023-01-17T19:59:13.761Z,2.31
2023-01-17T20:01:42.847Z,2.31
2023-01-17T20:04:13.421Z,2.30
2023-01-17T20:06:42.676Z,2.26
2023-01-17T20:09:10.875Z,2.25
2023-01-17T20:11:42.811Z,2.26
2023-01-17T20:14:15.784Z,2.26
2023-01-17T20:16:44.899Z,2.22
2023-01-17T20:19:14.312Z,2.17
2023-01-17T20:21:43.110Z,2.16
2023-01-17T20:24:13.693Z,2.15
2023-01-17T20:26:42.195Z,2.11
2023-01-17T20:29:13.791Z,2.06
2023-01-17T20:31:43.013Z,2.04
2023-01-17T20:34:13.600Z,2.02
2023-01-17T20:36:42.914Z,2.04
2023-01-17T20:39:14.475Z,2.02
2023-01-17T20:41:43.706Z,1.99
2023-01-17T20:44:13.976Z,1.97
2023-01-17T20:46:42.148Z,1.97
2023-01-17T20:49:14.696Z,1.95
2023-01-17T20:51:45.152Z,1.94
2023-01-17T20:54:14.931Z,1.94
2023-01-17T20:56:43.589Z,1.97
2023-01-17T20:59:14.635Z,1.96
2023-01-17T21:01:43.683Z,1.95
2023-01-17T21:04:12.972Z,1.94
2023-01-17T21:06:41.941Z,1.95
2023-01-17T21:09:13.252Z,1.93
2023-01-17T21:11:41.013Z,1.90
2023-01-17T21:14:08.763Z,1.89
2023-01-17T21:16:37.090Z,1.93
2023-01-17T21:19:05.086Z,1.90
2023-01-17T21:21:32.897Z,1.88
2023-01-17T21:24:00.785Z,1.86
2023-01-17T21:26:30.180Z,1.84
2023-01-17T21:29:00.354Z,1.78
2023-01-17T21:31:30.195Z,1.79
2023-01-17T21:33:59.948Z,1.75
2023-01-17T21:36:29.484Z,1.74
2023-01-17T21:38:59.057Z,1.71
2023-01-17T21:41:31.207Z,1.67
2023-01-17T21:44:00.698Z,1.65
2023-01-17T21:46:29.494Z,1.63
2023-01-17T21:48:57.967Z,1.62
2023-01-17T21:51:46.697Z,1.58
2023-01-17T21:54:14.676Z,1.57
2023-01-17T21:57:01.723Z,1.53
2023-01-17T21:59:32.265Z,1.48
2023-01-17T22:02:00.385Z,1.47
2023-01-17T22:04:29.540Z,1.46
2023-01-17T22:06:57.510Z,1.45
2023-01-17T22:09:25.470Z,1.46
2023-01-17T22:11:54.787Z,1.50
2023-01-17T22:14:22.679Z,1.48
2023-01-17T22:16:50.603Z,1.50
2023-01-17T22:19:18.650Z,1.53
2023-01-17T22:21:46.542Z,1.54
2023-01-17T22:24:16.883Z,1.55
2023-01-17T22:26:44.827Z,1.55
2023-01-17T22:29:17.059Z,1.55
2023-01-17T22:31:45.662Z,1.53
2023-01-17T22:34:14.046Z,1.49
2023-01-17T22:36:42.897Z,1.48
2023-01-17T22:39:11.729Z,1.44
2023-01-17T22:41:39.895Z,1.46
2023-01-17T22:44:08.609Z,1.45
2023-01-17T22:46:39.351Z,1.46
2023-01-17T22:49:08.626Z,1.48
2023-01-17T22:51:36.684Z,1.45
2023-01-17T22:54:05.226Z,1.44
2023-01-17T22:56:34.690Z,1.43
2023-01-17T22:59:03.044Z,1.41
2023-01-17T23:01:32.902Z,1.37
2023-01-17T23:04:04.537Z,1.38
2023-01-17T23:06:36.415Z,1.41
2023-01-17T23:09:07.374Z,1.42
2023-01-17T23:11:40.815Z,1.39
2023-01-17T23:14:11.284Z,1.38
2023-01-17T23:16:54.315Z,1.36
2023-01-17T23:19:24.619Z,1.42
2023-01-17T23:22:11.602Z,1.36
2023-01-17T23:24:43.266Z,1.31
2023-01-17T23:27:30.639Z,1.29
2023-01-17T23:29:58.653Z,1.29
2023-01-17T23:32:26.938Z,1.32
2023-01-17T23:34:56.375Z,1.27
2023-01-17T23:37:51.103Z,1.25
2023-01-17T23:40:19.587Z,1.30
2023-01-17T23:43:05.537Z,1.28
2023-01-17T23:45:35.994Z,1.26
2023-01-17T23:48:05.651Z,1.25
2023-01-17T23:50:34.961Z,1.24
2023-01-17T23:53:06.999Z,1.28
2023-01-17T23:55:36.449Z,1.23
2023-01-17T23:58:04.489Z,1.23
